Time;durP1;ratioP1;P1;durP2;ratioP2;P2;SDS_P1;SDS_P2;PMS_P1;PMS_P2;Temp;Humidity;BMP_temperature;BMP_pressure;BME280_temperature;BME280_humidity;BME280_pressure;Samples;Min_cycle;Max_cycle;Signal;HPM_P1;HPM_P2
2023/01/01 00:00:48;;;;;;;192.07;146.50;;;5.50;99.90;;;;;;5033976;28;20245;-87
2023/01/01 00:03:17;;;;;;;190.88;138.40;;;5.50;99.90;;;;;;5033730;28;20213;-86
2023/01/01 00:05:45;;;;;;;178.65;136.48;;;5.50;99.90;;;;;;5033870;28;20226;-87
2023/01/01 00:08:13;;;;;;;176.02;130.98;;;5.40;99.90;;;;;;5033864;28;20207;-86
2023/01/01 00:10:41;;;;;;;180.43;136.88;;;5.40;99.90;;;;;;5033864;28;20210;-87
2023/01/01 00:13:13;;;;;;;183.45;140.77;;;5.40;99.90;;;;;;5033687;28;20261;-87
2023/01/01 00:15:42;;;;;;;171.80;134.75;;;5.40;99.90;;;;;;5033318;28;20240;-87
2023/01/01 00:18:11;;;;;;;154.52;129.25;;;5.40;99.90;;;;;;5033332;28;20209;-86
2023/01/01 00:20:39;;;;;;;160.60;136.60;;;5.40;99.90;;;;;;5033427;28;20217;-88
2023/01/01 00:23:07;;;;;;;153.20;134.63;;;5.40;99.90;;;;;;5033535;28;20204;-87
2023/01/01 00:25:35;;;;;;;194.45;148.75;;;5.30;99.90;;;;;;5033248;28;20222;-88
2023/01/01 00:28:04;;;;;;;168.07;141.90;;;5.30;99.90;;;;;;5033366;28;20241;-86
2023/01/01 00:30:32;;;;;;;180.77;142.02;;;5.30;99.90;;;;;;5033664;28;20202;-86
2023/01/01 00:33:02;;;;;;;185.40;145.45;;;5.30;99.90;;;;;;5033402;28;20213;-87
2023/01/01 00:35:30;;;;;;;194.40;147.98;;;5.20;99.90;;;;;;5032973;28;20230;-86
2023/01/01 00:37:58;;;;;;;175.82;141.07;;;5.20;99.90;;;;;;5033154;28;20221;-86
2023/01/01 00:40:27;;;;;;;192.48;153.73;;;5.20;99.90;;;;;;5032906;28;20209;-88
2023/01/01 00:42:55;;;;;;;213.13;166.90;;;5.20;99.90;;;;;;5033180;28;20221;-87
2023/01/01 00:45:23;;;;;;;177.85;154.80;;;5.10;99.90;;;;;;5033062;28;20222;-87
2023/01/01 00:47:54;;;;;;;180.50;153.27;;;5.10;99.90;;;;;;5033288;28;20249;-88
2023/01/01 00:50:24;;;;;;;193.55;147.82;;;5.20;99.90;;;;;;5033066;28;20213;-86
2023/01/01 00:52:52;;;;;;;185.70;144.88;;;5.20;99.90;;;;;;5033386;28;20210;-86
2023/01/01 00:55:20;;;;;;;173.10;134.57;;;5.30;99.90;;;;;;5032602;28;20321;-89
2023/01/01 00:57:48;;;;;;;161.05;118.28;;;5.30;99.90;;;;;;5032584;28;20293;-87
2023/01/01 01:00:18;;;;;;;142.07;112.55;;;5.30;99.90;;;;;;5032707;28;20210;-87
2023/01/01 01:02:47;;;;;;;136.38;106.75;;;5.40;99.90;;;;;;5033033;28;20260;-86
2023/01/01 01:05:15;;;;;;;131.45;106.40;;;5.50;99.90;;;;;;5032651;28;20226;-88
2023/01/01 01:07:45;;;;;;;144.88;106.75;;;5.40;99.90;;;;;;5032646;28;20210;-86
2023/01/01 01:10:13;;;;;;;130.95;103.45;;;5.50;99.90;;;;;;5032818;28;20217;-86
2023/01/01 01:12:42;;;;;;;118.30;103.05;;;5.50;99.90;;;;;;5030085;28;20210;-87
2023/01/01 01:15:11;;;;;;;129.13;107.65;;;5.50;99.90;;;;;;5030216;28;20273;-87
2023/01/01 01:17:39;;;;;;;157.07;123.65;;;5.40;99.90;;;;;;5031014;28;20206;-86
2023/01/01 01:20:09;;;;;;;136.95;118.03;;;5.40;99.90;;;;;;5030930;28;20241;-86
2023/01/01 01:22:37;;;;;;;149.23;125.88;;;5.30;99.90;;;;;;5029946;28;20289;-87
2023/01/01 01:25:08;;;;;;;184.80;139.05;;;5.30;99.90;;;;;;5030633;28;20222;-86
2023/01/01 01:27:36;;;;;;;172.52;140.25;;;5.30;99.90;;;;;;5030960;28;20238;-87
2023/01/01 01:30:05;;;;;;;182.02;149.60;;;5.30;99.90;;;;;;5030764;28;20289;-86
2023/01/01 01:32:34;;;;;;;160.57;124.53;;;5.20;99.90;;;;;;5030823;28;20217;-86
2023/01/01 01:35:02;;;;;;;162.80;126.22;;;5.20;99.90;;;;;;5030019;28;20242;-87
2023/01/01 01:37:30;;;;;;;145.88;123.72;;;5.20;99.90;;;;;;5030059;28;20248;-87
2023/01/01 01:39:59;;;;;;;150.15;117.30;;;5.20;99.90;;;;;;5030473;28;20214;-87
2023/01/01 01:42:28;;;;;;;124.55;105.20;;;5.10;99.90;;;;;;5030484;28;20210;-87
2023/01/01 01:44:59;;;;;;;132.43;110.38;;;5.10;99.90;;;;;;5030270;28;20227;-87
2023/01/01 01:47:32;;;;;;;124.78;94.78;;;5.10;99.90;;;;;;5030262;28;20207;-88
2023/01/01 01:50:06;;;;;;;147.70;97.93;;;5.10;99.90;;;;;;5030942;28;20214;-88
2023/01/01 01:52:37;;;;;;;118.82;91.32;;;5.10;99.90;;;;;;5034389;28;20217;-87
2023/01/01 01:55:09;;;;;;;120.03;89.78;;;5.00;99.90;;;;;;5033760;28;20256;-87
2023/01/01 01:57:40;;;;;;;96.95;84.97;;;5.00;99.90;;;;;;5034151;28;20214;-86
2023/01/01 02:00:10;;;;;;;94.18;78.75;;;5.10;99.90;;;;;;5033457;28;20207;-86
2023/01/01 02:02:43;;;;;;;111.63;81.50;;;5.00;99.90;;;;;;5034262;28;20218;-86
2023/01/01 02:05:12;;;;;;;124.85;82.45;;;5.00;99.90;;;;;;5033940;28;20245;-86
2023/01/01 02:07:41;;;;;;;99.75;83.22;;;5.00;99.90;;;;;;5033727;28;20218;-87
2023/01/01 02:10:09;;;;;;;100.82;79.72;;;5.00;99.90;;;;;;5033761;28;20217;-86
2023/01/01 02:12:39;;;;;;;106.15;83.00;;;5.00;99.90;;;;;;5034013;28;20211;-86
2023/01/01 02:15:10;;;;;;;113.93;88.10;;;5.00;99.90;;;;;;5033339;28;20228;-86
2023/01/01 02:17:44;;;;;;;109.55;82.88;;;5.00;99.90;;;;;;5034076;28;20214;-86
2023/01/01 02:20:39;;;;;;;108.45;76.55;;;4.90;99.90;;;;;;5033876;28;20210;-87
2023/01/01 02:23:43;;;;;;;86.20;69.78;;;4.90;99.90;;;;;;5034079;28;20211;-87
2023/01/01 02:26:37;;;;;;;90.10;70.28;;;4.90;99.90;;;;;;5033762;28;20241;-87
2023/01/01 02:29:19;;;;;;;73.05;60.08;;;4.80;99.90;;;;;;5033506;28;20215;-87
2023/01/01 02:31:50;;;;;;;76.45;59.05;;;4.80;99.90;;;;;;5033675;28;20213;-87
2023/01/01 02:34:23;;;;;;;80.13;56.47;;;4.80;99.90;;;;;;5033442;28;20220;-87
2023/01/01 02:36:54;;;;;;;78.05;65.60;;;4.80;99.90;;;;;;5032772;28;20234;-87
2023/01/01 02:39:26;;;;;;;72.90;58.45;;;4.80;99.90;;;;;;5033202;28;20207;-88
2023/01/01 02:41:57;;;;;;;80.65;60.40;;;4.80;99.90;;;;;;5033193;28;20297;-87
2023/01/01 02:44:30;;;;;;;74.95;58.08;;;4.80;99.90;;;;;;5033584;28;20210;-86
2023/01/01 02:47:07;;;;;;;73.45;57.30;;;4.70;99.90;;;;;;5032648;28;20225;-88
2023/01/01 02:49:41;;;;;;;63.15;51.63;;;4.70;99.90;;;;;;5033370;28;20221;-87
2023/01/01 02:52:14;;;;;;;70.25;52.30;;;4.70;99.90;;;;;;5033167;28;20218;-86
2023/01/01 02:54:48;;;;;;;82.65;63.80;;;4.70;99.90;;;;;;5033202;28;20218;-87
2023/01/01 02:57:32;;;;;;;76.65;61.00;;;4.60;99.90;;;;;;5032368;28;20230;-88
2023/01/01 03:00:26;;;;;;;63.58;55.50;;;4.60;99.90;;;;;;5032861;28;20220;-86
2023/01/01 03:03:16;;;;;;;66.68;55.55;;;4.60;99.90;;;;;;5031918;28;20214;-87
2023/01/01 03:08:47;;;;;;;71.55;54.25;;;4.60;99.90;;;;;;5033606;28;20214;-87
2023/01/01 03:11:18;;;;;;;72.45;52.65;;;4.60;99.90;;;;;;5035117;28;20206;-86
2023/01/01 03:13:52;;;;;;;70.40;53.83;;;4.70;99.90;;;;;;5034965;28;20210;-86
2023/01/01 03:16:27;;;;;;;71.13;53.50;;;4.70;99.90;;;;;;5034598;28;20236;-88
2023/01/01 03:19:13;;;;;;;64.65;51.95;;;4.70;99.90;;;;;;5034461;28;20217;-86
2023/01/01 03:21:44;;;;;;;56.95;47.67;;;4.80;99.90;;;;;;5034988;28;20214;-87
2023/01/01 03:24:18;;;;;;;71.55;51.10;;;4.80;99.90;;;;;;5034813;28;20209;-86
2023/01/01 03:26:50;;;;;;;68.22;49.63;;;4.80;99.90;;;;;;5034234;28;20225;-87
2023/01/01 03:29:18;;;;;;;60.17;45.97;;;4.80;99.90;;;;;;5034306;28;20214;-86
2023/01/01 03:31:50;;;;;;;63.13;48.67;;;4.80;99.90;;;;;;5034621;28;20237;-87
2023/01/01 03:34:23;;;;;;;57.47;49.67;;;4.80;99.90;;;;;;5034484;28;20210;-87
2023/01/01 03:36:57;;;;;;;72.35;49.92;;;4.80;99.90;;;;;;5034352;28;20222;-87
2023/01/01 03:39:30;;;;;;;58.00;50.53;;;4.80;99.90;;;;;;5034294;28;20210;-88
2023/01/01 03:42:11;;;;;;;55.72;46.53;;;4.70;99.90;;;;;;5034120;28;20214;-87
2023/01/01 03:44:45;;;;;;;57.97;45.05;;;4.70;99.90;;;;;;5034231;28;20206;-87
2023/01/01 03:47:16;;;;;;;49.47;44.28;;;4.60;99.90;;;;;;5033858;28;20212;-87
2023/01/01 03:49:45;;;;;;;53.13;45.20;;;4.70;99.90;;;;;;5034416;28;20233;-88
2023/01/01 03:52:25;;;;;;;53.25;42.63;;;4.70;99.90;;;;;;5034249;28;20289;-87
2023/01/01 03:55:00;;;;;;;44.72;37.85;;;4.70;99.90;;;;;;5033961;28;20229;-86
2023/01/01 03:57:35;;;;;;;52.05;37.70;;;4.80;99.90;;;;;;5033433;28;20229;-87
2023/01/01 04:00:08;;;;;;;61.03;38.78;;;4.70;99.90;;;;;;5033860;28;20213;-87
2023/01/01 04:02:42;;;;;;;47.20;41.50;;;4.70;99.90;;;;;;5034470;28;20217;-87
2023/01/01 04:05:12;;;;;;;46.10;39.17;;;4.70;99.90;;;;;;5034199;28;20234;-87
2023/01/01 04:07:40;;;;;;;46.00;38.85;;;4.70;99.90;;;;;;5034041;28;20198;-87
2023/01/01 04:10:17;;;;;;;43.53;38.35;;;4.70;99.90;;;;;;5033650;28;20221;-88
2023/01/01 04:12:47;;;;;;;46.65;38.03;;;4.70;99.90;;;;;;5033664;28;20212;-87
2023/01/01 04:15:16;;;;;;;53.60;39.63;;;4.60;99.90;;;;;;5033866;28;20237;-87
2023/01/01 04:17:46;;;;;;;39.55;35.33;;;4.50;99.90;;;;;;5033336;28;20233;-88
2023/01/01 04:20:15;;;;;;;43.08;35.28;;;4.60;99.90;;;;;;5033686;28;20206;-87
2023/01/01 04:22:43;;;;;;;47.67;34.67;;;4.50;99.90;;;;;;5033408;28;20206;-87
2023/01/01 04:25:12;;;;;;;45.65;35.30;;;4.50;99.90;;;;;;5032910;28;20230;-87
2023/01/01 04:27:41;;;;;;;45.45;35.08;;;4.50;99.90;;;;;;5033474;28;20206;-87
2023/01/01 04:30:13;;;;;;;57.30;38.00;;;4.50;99.90;;;;;;5033623;28;20203;-88
2023/01/01 04:32:41;;;;;;;39.20;34.92;;;4.50;99.90;;;;;;5036077;28;20229;-87
2023/01/01 04:35:12;;;;;;;41.58;34.78;;;4.50;99.90;;;;;;5034043;28;20237;-88
2023/01/01 04:37:42;;;;;;;34.70;30.98;;;4.50;99.90;;;;;;5032632;28;20218;-87
2023/01/01 04:40:12;;;;;;;42.88;34.83;;;4.50;99.90;;;;;;5033486;28;20212;-87
2023/01/01 04:42:40;;;;;;;49.47;35.65;;;4.50;99.90;;;;;;5033446;28;20217;-89
2023/01/01 04:45:11;;;;;;;37.33;31.13;;;4.60;99.90;;;;;;5033189;28;20314;-89
2023/01/01 04:47:40;;;;;;;40.60;31.52;;;4.50;99.90;;;;;;5032769;28;20263;-88
2023/01/01 04:50:09;;;;;;;55.63;32.88;;;4.50;99.90;;;;;;5033046;28;20209;-88
2023/01/01 04:52:39;;;;;;;35.08;28.83;;;4.50;99.90;;;;;;5033705;28;20206;-89
2023/01/01 04:55:07;;;;;;;35.17;30.95;;;4.50;99.90;;;;;;5033211;28;20317;-88
2023/01/01 04:57:36;;;;;;;36.08;31.70;;;4.50;99.90;;;;;;5033000;28;20226;-88
2023/01/01 05:00:05;;;;;;;36.28;29.77;;;4.50;99.90;;;;;;5032782;28;20217;-88
2023/01/01 05:02:33;;;;;;;32.08;28.63;;;4.50;99.90;;;;;;5032750;28;20202;-88
2023/01/01 05:05:01;;;;;;;40.00;27.30;;;4.50;99.90;;;;;;5032866;28;20316;-88
2023/01/01 05:07:30;;;;;;;35.40;29.40;;;4.50;99.90;;;;;;5032947;28;20207;-88
2023/01/01 05:09:59;;;;;;;35.35;29.85;;;4.50;99.90;;;;;;5032909;28;20203;-88
2023/01/01 05:12:30;;;;;;;31.55;28.15;;;4.40;99.90;;;;;;5032994;28;20289;-88
2023/01/01 05:14:58;;;;;;;43.40;30.75;;;4.40;99.90;;;;;;5032887;28;20240;-88
2023/01/01 05:17:26;;;;;;;38.75;31.40;;;4.40;99.90;;;;;;5032253;28;20306;-88
2023/01/01 05:19:54;;;;;;;42.40;31.27;;;4.40;99.90;;;;;;5032881;28;20253;-88
2023/01/01 05:22:23;;;;;;;63.88;36.05;;;4.40;99.90;;;;;;5032682;28;20212;-87
2023/01/01 05:24:51;;;;;;;43.67;35.00;;;4.40;99.90;;;;;;5034245;28;20230;-88
2023/01/01 05:27:20;;;;;;;53.28;37.63;;;4.40;99.90;;;;;;5038937;28;20206;-88
2023/01/01 05:29:49;;;;;;;45.28;38.60;;;4.40;99.90;;;;;;5039280;28;20205;-88
2023/01/01 05:32:17;;;;;;;45.13;38.30;;;4.40;99.90;;;;;;5039444;28;20278;-87
2023/01/01 05:34:45;;;;;;;44.00;38.83;;;4.40;99.90;;;;;;5039417;28;20232;-89
2023/01/01 05:37:14;;;;;;;48.60;38.08;;;4.40;99.90;;;;;;5038646;28;20233;-88
2023/01/01 05:39:42;;;;;;;43.83;35.90;;;4.30;99.90;;;;;;5038862;28;20274;-87
2023/01/01 05:42:10;;;;;;;44.47;37.38;;;4.30;99.90;;;;;;5038853;28;20210;-88
2023/01/01 05:44:40;;;;;;;41.33;34.95;;;4.20;99.90;;;;;;5039546;28;20213;-88
2023/01/01 05:47:10;;;;;;;37.53;33.08;;;4.20;99.90;;;;;;5038812;28;20213;-87
2023/01/01 05:49:38;;;;;;;36.38;31.90;;;4.30;99.90;;;;;;5039110;28;20221;-88
2023/01/01 05:52:06;;;;;;;36.13;29.65;;;4.30;99.90;;;;;;5039211;28;20206;-88
2023/01/01 05:54:35;;;;;;;30.48;27.25;;;4.40;99.90;;;;;;5039340;28;20214;-88
2023/01/01 05:57:03;;;;;;;35.35;30.40;;;4.40;99.90;;;;;;5038760;28;20213;-87
2023/01/01 05:59:31;;;;;;;33.97;29.88;;;4.40;99.90;;;;;;5039032;28;20213;-88
2023/01/01 06:02:01;;;;;;;35.85;30.58;;;4.40;99.90;;;;;;5038984;28;20209;-88
2023/01/01 06:04:30;;;;;;;40.28;32.25;;;4.40;99.90;;;;;;5038655;28;20236;-87
2023/01/01 06:06:58;;;;;;;41.03;33.97;;;4.40;99.90;;;;;;5038961;28;20202;-88
2023/01/01 06:09:27;;;;;;;41.90;31.80;;;4.40;99.90;;;;;;5038947;28;20206;-88
2023/01/01 06:11:55;;;;;;;42.65;35.58;;;4.50;99.90;;;;;;5039059;28;20206;-88
2023/01/01 06:14:23;;;;;;;40.05;32.85;;;4.40;99.90;;;;;;5038778;28;20210;-87
2023/01/01 06:16:52;;;;;;;42.10;36.72;;;4.40;99.90;;;;;;5038580;28;20221;-88
2023/01/01 06:19:21;;;;;;;42.35;33.95;;;4.40;99.90;;;;;;5038638;28;20226;-88
2023/01/01 06:21:50;;;;;;;35.83;31.63;;;4.40;99.90;;;;;;5038992;28;20213;-87
2023/01/01 06:24:18;;;;;;;37.40;30.77;;;4.40;99.90;;;;;;5038667;28;20293;-88
2023/01/01 06:26:46;;;;;;;43.55;32.08;;;4.40;99.90;;;;;;5038340;28;20320;-87
2023/01/01 06:29:14;;;;;;;34.20;30.48;;;4.40;99.90;;;;;;5038501;28;20208;-87
2023/01/01 06:31:43;;;;;;;33.03;29.65;;;4.40;99.90;;;;;;5038930;28;20209;-88
2023/01/01 06:34:11;;;;;;;40.72;32.97;;;4.40;99.90;;;;;;5038855;28;20348;-88
2023/01/01 06:36:41;;;;;;;36.05;30.52;;;4.40;99.90;;;;;;5035984;28;20227;-88
2023/01/01 06:39:09;;;;;;;30.73;27.45;;;4.30;99.90;;;;;;5035472;28;20242;-87
2023/01/01 06:41:37;;;;;;;37.25;28.90;;;4.40;99.90;;;;;;5035286;28;20212;-87
2023/01/01 06:44:06;;;;;;;34.00;27.90;;;4.40;99.90;;;;;;5035258;28;20213;-88
2023/01/01 06:46:36;;;;;;;27.58;24.70;;;4.40;99.90;;;;;;5035305;28;20230;-88
2023/01/01 06:49:06;;;;;;;31.13;25.55;;;4.50;99.90;;;;;;5035156;28;20203;-87
2023/01/01 06:51:38;;;;;;;37.53;29.95;;;4.50;99.90;;;;;;5035315;28;20206;-87
2023/01/01 06:54:08;;;;;;;34.58;30.67;;;4.50;99.90;;;;;;5035948;28;20207;-87
2023/01/01 06:56:37;;;;;;;34.38;30.65;;;4.50;99.90;;;;;;5034898;28;20230;-87
2023/01/01 06:59:06;;;;;;;33.05;29.10;;;4.50;99.90;;;;;;5035195;28;20225;-86
2023/01/01 07:01:36;;;;;;;42.88;27.92;;;4.50;99.90;;;;;;5035085;28;20209;-87
2023/01/01 07:04:06;;;;;;;35.47;27.98;;;4.50;99.90;;;;;;5035151;28;20294;-88
2023/01/01 07:06:35;;;;;;;31.83;26.98;;;4.50;99.90;;;;;;5034796;28;20232;-86
2023/01/01 07:09:04;;;;;;;42.30;32.53;;;4.50;99.90;;;;;;5034973;28;20209;-86
2023/01/01 07:11:34;;;;;;;37.92;31.33;;;4.50;99.90;;;;;;5038271;28;20202;-86
2023/01/01 07:14:03;;;;;;;29.23;26.05;;;4.50;99.90;;;;;;5034811;28;20209;-86
2023/01/01 07:16:31;;;;;;;27.85;24.38;;;4.50;99.90;;;;;;5035165;28;20309;-87
2023/01/01 07:19:00;;;;;;;26.27;23.52;;;4.50;99.90;;;;;;5034595;28;20226;-86
2023/01/01 07:21:30;;;;;;;27.20;22.80;;;4.60;99.90;;;;;;5034741;28;20218;-87
2023/01/01 07:24:00;;;;;;;27.73;24.05;;;4.70;99.90;;;;;;5034540;28;20274;-86
2023/01/01 07:26:29;;;;;;;31.15;25.65;;;4.70;99.90;;;;;;5034606;28;20234;-86
2023/01/01 07:29:00;;;;;;;33.92;25.30;;;4.70;99.90;;;;;;5034412;28;20202;-86
2023/01/01 07:31:36;;;;;;;29.45;24.05;;;4.70;99.90;;;;;;5034605;28;20238;-87
2023/01/01 07:34:05;;;;;;;32.80;24.58;;;4.80;99.90;;;;;;5034453;28;20206;-87
2023/01/01 07:36:34;;;;;;;33.47;21.95;;;4.80;99.90;;;;;;5034625;28;20242;-86
2023/01/01 07:39:02;;;;;;;29.33;24.23;;;4.90;99.90;;;;;;5034146;28;20223;-86
2023/01/01 07:41:30;;;;;;;35.08;25.17;;;4.90;99.90;;;;;;5034566;28;20223;-88
2023/01/01 07:44:00;;;;;;;30.27;24.40;;;5.00;99.90;;;;;;5034160;28;20293;-87
2023/01/01 07:46:29;;;;;;;29.60;26.30;;;5.10;99.90;;;;;;5033968;28;20230;-86
2023/01/01 07:48:57;;;;;;;29.90;25.20;;;5.10;99.90;;;;;;5033925;28;20293;-87
2023/01/01 07:51:26;;;;;;;32.25;28.38;;;5.20;99.90;;;;;;5034356;28;20214;-87
2023/01/01 07:53:54;;;;;;;43.88;36.72;;;5.20;99.90;;;;;;5034187;28;20244;-86
2023/01/01 07:56:31;;;;;;;41.22;36.63;;;5.20;99.90;;;;;;5034303;28;20292;-86
2023/01/01 07:59:00;;;;;;;46.55;37.20;;;5.10;99.90;;;;;;5033727;28;20391;-87
2023/01/01 08:01:29;;;;;;;45.80;38.03;;;5.10;99.90;;;;;;5033657;28;20202;-87
2023/01/01 08:03:57;;;;;;;38.35;33.67;;;5.10;99.90;;;;;;5033617;28;20217;-87
2023/01/01 08:06:25;;;;;;;39.13;35.10;;;5.10;99.90;;;;;;5033699;28;20226;-87
2023/01/01 08:08:54;;;;;;;42.33;36.35;;;5.10;99.90;;;;;;5034117;28;20277;-87
2023/01/01 08:11:22;;;;;;;39.53;31.63;;;5.00;99.90;;;;;;5033774;28;20218;-87
2023/01/01 08:13:51;;;;;;;43.47;32.15;;;5.00;99.90;;;;;;5033572;28;20217;-87
2023/01/01 08:16:20;;;;;;;34.63;30.92;;;5.00;99.90;;;;;;5033823;28;20326;-86
2023/01/01 08:18:49;;;;;;;31.88;28.52;;;5.00;99.90;;;;;;5033210;28;20229;-86
2023/01/01 08:21:17;;;;;;;39.58;29.98;;;5.10;99.90;;;;;;5033997;28;20213;-86
2023/01/01 08:23:45;;;;;;;31.67;27.88;;;5.10;99.90;;;;;;5033852;28;20209;-86
2023/01/01 08:26:15;;;;;;;32.03;26.98;;;5.20;99.90;;;;;;5033398;28;20228;-87
2023/01/01 08:28:43;;;;;;;33.00;29.48;;;5.20;99.90;;;;;;5033663;28;20294;-87
2023/01/01 08:31:11;;;;;;;35.38;30.63;;;5.20;99.90;;;;;;5033642;28;20289;-87
2023/01/01 08:33:41;;;;;;;41.97;31.48;;;5.10;99.90;;;;;;5033772;28;20257;-87
2023/01/01 08:36:12;;;;;;;39.53;32.67;;;5.20;99.90;;;;;;5033505;28;20325;-87
2023/01/01 08:38:40;;;;;;;38.45;32.63;;;5.10;99.90;;;;;;5033076;28;20262;-86
2023/01/01 08:41:09;;;;;;;47.67;33.60;;;5.10;99.90;;;;;;5033344;28;20206;-87
2023/01/01 08:43:37;;;;;;;38.72;30.77;;;5.10;99.90;;;;;;5033485;28;20206;-87
2023/01/01 08:46:05;;;;;;;36.10;30.98;;;5.10;99.90;;;;;;5033164;28;20232;-87
2023/01/01 08:48:34;;;;;;;39.90;30.48;;;5.10;99.90;;;;;;5033292;28;20216;-87
2023/01/01 08:51:04;;;;;;;32.50;28.77;;;5.10;99.90;;;;;;5033211;28;20206;-87
2023/01/01 08:53:33;;;;;;;36.83;31.88;;;5.20;99.90;;;;;;5033327;28;20209;-87
2023/01/01 08:56:03;;;;;;;34.20;30.52;;;5.20;99.90;;;;;;5033224;28;20317;-87
2023/01/01 08:58:32;;;;;;;36.15;30.05;;;5.20;99.90;;;;;;5032527;28;20206;-87
2023/01/01 09:01:00;;;;;;;35.03;30.70;;;5.30;99.90;;;;;;5032690;28;20217;-86
2023/01/01 09:03:28;;;;;;;34.15;30.17;;;5.40;99.90;;;;;;5032877;28;20206;-86
2023/01/01 09:05:57;;;;;;;39.90;32.13;;;5.40;99.90;;;;;;5033243;28;20250;-86
2023/01/01 09:08:27;;;;;;;41.45;31.58;;;5.50;99.90;;;;;;5032828;28;20210;-87
2023/01/01 09:10:59;;;;;;;37.63;30.55;;;5.60;99.90;;;;;;5033703;28;20209;-87
2023/01/01 09:13:28;;;;;;;32.33;28.77;;;5.60;99.90;;;;;;5034168;28;20206;-86
2023/01/01 09:15:57;;;;;;;34.78;29.38;;;5.70;99.90;;;;;;5033300;28;20226;-86
2023/01/01 09:18:26;;;;;;;35.53;31.13;;;5.90;99.90;;;;;;5033280;28;20244;-86
2023/01/01 09:20:54;;;;;;;30.95;27.60;;;6.00;99.90;;;;;;5032978;28;20226;-87
2023/01/01 09:23:22;;;;;;;34.75;27.80;;;6.10;99.90;;;;;;5033325;28;20222;-87
2023/01/01 09:25:52;;;;;;;30.88;27.60;;;6.20;99.90;;;;;;5033553;28;20230;-87
2023/01/01 09:28:20;;;;;;;36.05;29.13;;;6.30;99.90;;;;;;5032762;28;20219;-87
2023/01/01 09:30:53;;;;;;;31.42;24.10;;;6.50;99.90;;;;;;5033581;28;20276;-86
2023/01/01 09:33:21;;;;;;;27.35;24.33;;;6.60;99.90;;;;;;5032943;28;20206;-87
2023/01/01 09:35:49;;;;;;;26.80;23.50;;;6.70;99.90;;;;;;5032816;28;20269;-88
2023/01/01 09:38:18;;;;;;;30.70;23.92;;;6.80;99.90;;;;;;5032944;28;20223;-88
2023/01/01 09:40:59;;;;;;;24.00;21.08;;;7.00;99.90;;;;;;5033235;28;20306;-87
2023/01/01 09:43:37;;;;;;;39.63;24.83;;;7.10;99.90;;;;;;5033378;28;20217;-86
2023/01/01 09:46:07;;;;;;;28.15;22.42;;;7.20;99.90;;;;;;5035487;28;20237;-88
2023/01/01 09:48:41;;;;;;;22.65;20.05;;;7.30;99.90;;;;;;5032751;28;20293;-87
2023/01/01 09:51:16;;;;;;;25.52;18.98;;;7.40;99.90;;;;;;5033048;28;20209;-87
2023/01/01 09:53:50;;;;;;;20.33;17.58;;;7.50;99.90;;;;;;5032911;28;20206;-87
2023/01/01 09:56:25;;;;;;;28.27;18.35;;;7.70;99.90;;;;;;5032852;28;20229;-86
2023/01/01 09:58:55;;;;;;;18.33;16.38;;;7.80;99.90;;;;;;5032674;28;20204;-87
2023/01/01 10:01:35;;;;;;;23.27;18.83;;;8.00;99.90;;;;;;5032673;28;20313;-86
2023/01/01 10:04:22;;;;;;;22.67;18.63;;;8.30;99.90;;;;;;5032844;28;20214;-88
2023/01/01 10:07:00;;;;;;;18.08;16.30;;;8.50;99.90;;;;;;5032851;28;20215;-87
2023/01/01 10:09:41;;;;;;;20.02;15.65;;;8.80;99.90;;;;;;5032772;28;20285;-88
2023/01/01 10:12:16;;;;;;;19.17;15.95;;;9.10;99.90;;;;;;5035830;28;20212;-89
2023/01/01 10:14:49;;;;;;;15.55;13.93;;;9.30;99.90;;;;;;5036693;28;20210;-88
2023/01/01 10:17:21;;;;;;;19.50;15.63;;;9.50;99.90;;;;;;5036454;28;20206;-88
2023/01/01 10:19:52;;;;;;;16.85;15.10;;;9.60;99.90;;;;;;5036925;28;20237;-88
2023/01/01 10:22:26;;;;;;;18.00;15.77;;;9.70;99.90;;;;;;5036951;28;20206;-89
2023/01/01 10:24:59;;;;;;;30.83;15.65;;;9.80;99.90;;;;;;5036041;28;20230;-87
2023/01/01 10:27:39;;;;;;;18.90;15.75;;;10.00;99.90;;;;;;5035303;28;20217;-88
2023/01/01 10:30:16;;;;;;;18.67;15.77;;;10.20;99.90;;;;;;5035470;28;20205;-87
2023/01/01 10:32:48;;;;;;;18.30;14.77;;;10.50;99.90;;;;;;5035762;28;20301;-87
2023/01/01 10:35:18;;;;;;;18.00;15.02;;;10.90;99.90;;;;;;5035558;28;20226;-88
2023/01/01 10:37:53;;;;;;;15.13;13.60;;;11.30;99.90;;;;;;5035559;28;20206;-88
2023/01/01 10:40:25;;;;;;;14.95;11.95;;;11.70;99.90;;;;;;5035216;28;20230;-87
2023/01/01 10:42:57;;;;;;;14.82;13.15;;;11.80;99.90;;;;;;5035257;28;20219;-88
2023/01/01 10:45:31;;;;;;;14.93;13.32;;;11.90;99.90;;;;;;5035513;28;20237;-87
2023/01/01 10:48:14;;;;;;;14.23;12.82;;;11.90;99.90;;;;;;5034929;28;20293;-88
2023/01/01 10:50:45;;;;;;;18.77;13.80;;;11.90;99.90;;;;;;5035333;28;20217;-89
2023/01/01 10:53:27;;;;;;;15.63;14.02;;;12.00;99.90;;;;;;5035336;28;20209;-87
2023/01/01 10:56:05;;;;;;;14.65;12.48;;;12.30;99.90;;;;;;5035320;28;20237;-87
2023/01/01 10:58:41;;;;;;;14.30;12.88;;;12.40;99.90;;;;;;5035176;28;20210;-87
2023/01/01 11:01:11;;;;;;;18.85;13.40;;;12.50;99.90;;;;;;5035112;28;20241;-88
2023/01/01 11:03:54;;;;;;;14.98;13.45;;;12.90;99.90;;;;;;5035195;28;20210;-88
2023/01/01 11:06:25;;;;;;;18.80;14.20;;;13.10;99.90;;;;;;5034952;28;20237;-87
2023/01/01 11:08:56;;;;;;;15.90;12.25;;;13.10;99.90;;;;;;5035027;28;20211;-88
2023/01/01 11:11:30;;;;;;;14.05;12.73;;;13.00;99.90;;;;;;5035720;28;20202;-87
2023/01/01 11:14:04;;;;;;;13.25;12.05;;;13.20;99.90;;;;;;5034789;28;20280;-87
2023/01/01 11:16:33;;;;;;;17.02;12.82;;;13.10;99.90;;;;;;5034847;28;20222;-88
2023/01/01 11:19:04;;;;;;;14.85;12.32;;;12.90;99.90;;;;;;5034441;28;20222;-88
2023/01/01 11:21:33;;;;;;;11.43;10.45;;;12.80;99.90;;;;;;5034472;28;20245;-88
2023/01/01 11:24:19;;;;;;;12.90;11.60;;;12.60;99.90;;;;;;5034078;28;20210;-86
2023/01/01 11:26:47;;;;;;;12.40;11.18;;;12.40;99.90;;;;;;5034778;28;20257;-86
2023/01/01 11:29:26;;;;;;;12.45;11.25;;;12.00;99.90;;;;;;5034311;28;20212;-86
2023/01/01 11:31:55;;;;;;;22.70;10.88;;;11.70;99.90;;;;;;5034588;28;20210;-86
2023/01/01 11:34:28;;;;;;;14.48;11.10;;;11.20;99.90;;;;;;5034694;28;20206;-87
2023/01/01 11:37:16;;;;;;;17.88;12.60;;;11.10;99.90;;;;;;5034264;28;20221;-86
2023/01/01 11:39:46;;;;;;;16.48;10.88;;;11.10;99.90;;;;;;5034472;28;20233;-87
2023/01/01 11:42:18;;;;;;;12.05;10.90;;;11.50;99.90;;;;;;5033922;28;20249;-86
2023/01/01 11:44:52;;;;;;;9.93;9.05;;;11.80;99.90;;;;;;5034211;28;20309;-89
2023/01/01 11:47:25;;;;;;;11.63;10.43;;;12.40;99.90;;;;;;5034115;28;20218;-87
2023/01/01 11:49:56;;;;;;;10.35;9.40;;;12.80;99.90;;;;;;5034898;28;20214;-86
2023/01/01 11:52:34;;;;;;;11.82;9.70;;;13.50;99.90;;;;;;5034386;28;20213;-87
2023/01/01 11:55:10;;;;;;;10.45;9.18;;;13.70;99.90;;;;;;5034001;28;20234;-87
2023/01/01 11:57:41;;;;;;;12.50;9.98;;;13.80;99.90;;;;;;5033639;28;20210;-86
2023/01/01 12:00:15;;;;;;;12.25;11.00;;;14.10;99.90;;;;;;5033932;28;20205;-87
2023/01/01 12:02:50;;;;;;;10.23;9.18;;;14.40;99.90;;;;;;5034110;28;20210;-86
2023/01/01 12:05:23;;;;;;;9.63;8.73;;;14.50;99.90;;;;;;5033953;28;20237;-86
2023/01/01 12:07:53;;;;;;;14.45;10.95;;;14.80;99.90;;;;;;5033626;28;20212;-86
2023/01/01 12:10:25;;;;;;;10.82;9.73;;;15.30;99.90;;;;;;5033748;28;20206;-87
2023/01/01 12:12:58;;;;;;;11.77;9.68;;;15.20;99.90;;;;;;5033913;28;20202;-86
2023/01/01 12:15:35;;;;;;;18.88;10.38;;;15.20;99.90;;;;;;5034048;28;20240;-86
2023/01/01 12:18:08;;;;;;;10.77;9.70;;;15.20;99.90;;;;;;5033674;28;20268;-85
2023/01/01 12:20:43;;;;;;;9.15;8.35;;;15.50;99.90;;;;;;5033412;28;20226;-87
2023/01/01 12:23:13;;;;;;;12.32;9.25;;;15.40;99.90;;;;;;5033346;28;20221;-86
2023/01/01 12:25:44;;;;;;;9.90;8.98;;;15.60;99.90;;;;;;5033400;28;20238;-86
2023/01/01 12:28:29;;;;;;;9.88;8.82;;;15.60;99.90;;;;;;5033319;28;20221;-86
2023/01/01 12:31:03;;;;;;;9.63;8.45;;;15.60;99.90;;;;;;5033768;28;20213;-86
2023/01/01 12:33:55;;;;;;;10.48;9.18;;;15.50;99.90;;;;;;5033685;28;20214;-86
2023/01/01 12:36:34;;;;;;;14.40;9.57;;;15.60;99.90;;;;;;5032715;28;20238;-87
2023/01/01 12:39:39;;;;;;;10.73;9.55;;;15.60;99.90;;;;;;5033229;28;20222;-86
2023/01/01 12:42:16;;;;;;;13.43;10.25;;;15.40;99.90;;;;;;5033105;28;20246;-85
2023/01/01 12:45:08;;;;;;;9.10;8.30;;;15.40;99.90;;;;;;5033223;28;20209;-86
2023/01/01 12:47:44;;;;;;;14.13;10.25;;;15.40;99.90;;;;;;5033020;28;20218;-85
2023/01/01 12:50:24;;;;;;;12.00;9.90;;;15.40;99.90;;;;;;5032988;28;20206;-85
2023/01/01 12:53:00;;;;;;;10.30;9.30;;;15.30;99.90;;;;;;5033491;28;20210;-86
2023/01/01 12:56:10;;;;;;;9.93;8.50;;;15.40;99.90;;;;;;5033128;28;20241;-88
2023/01/01 12:58:43;;;;;;;9.48;8.32;;;15.20;99.90;;;;;;5032981;28;20217;-88